sensor_id;sensor_type;location;lat;lon;timestamp;P1;durP1;ratioP1;P2;durP2;ratioP2
4208;SDS011;36320;48.860;2.380;2022-08-19T00:00:33;14.52;;;3.85;;
4208;SDS011;36320;48.860;2.380;2022-08-19T00:02:59;11.33;;;2.90;;
4208;SDS011;36320;48.860;2.380;2022-08-19T00:05:24;11.20;;;3.10;;
4208;SDS011;36320;48.860;2.380;2022-08-19T00:07:50;11.70;;;3.50;;
4208;SDS011;36320;48.860;2.380;2022-08-19T00:10:16;14.87;;;4.23;;
4208;SDS011;36320;48.860;2.380;2022-08-19T00:12:43;10.40;;;3.20;;
4208;SDS011;36320;48.860;2.380;2022-08-19T00:15:10;11.53;;;3.13;;
4208;SDS011;36320;48.860;2.380;2022-08-19T00:17:39;10.45;;;3.45;;
4208;SDS011;36320;48.860;2.380;2022-08-19T00:20:05;13.82;;;3.50;;
4208;SDS011;36320;48.860;2.380;2022-08-19T00:22:32;12.02;;;3.70;;
4208;SDS011;36320;48.860;2.380;2022-08-19T00:24:58;13.55;;;3.53;;
4208;SDS011;36320;48.860;2.380;2022-08-19T00:27:24;12.20;;;3.40;;
4208;SDS011;36320;48.860;2.380;2022-08-19T00:29:49;11.50;;;3.30;;
4208;SDS011;36320;48.860;2.380;2022-08-19T00:32:16;12.20;;;3.93;;
4208;SDS011;36320;48.860;2.380;2022-08-19T00:34:41;15.73;;;3.30;;
4208;SDS011;36320;48.860;2.380;2022-08-19T00:37:08;11.35;;;3.20;;
4208;SDS011;36320;48.860;2.380;2022-08-19T00:39:34;13.30;;;3.70;;
4208;SDS011;36320;48.860;2.380;2022-08-19T00:42:00;11.73;;;3.20;;
4208;SDS011;36320;48.860;2.380;2022-08-19T00:44:27;10.55;;;3.10;;
4208;SDS011;36320;48.860;2.380;2022-08-19T00:46:54;9.68;;;2.60;;
4208;SDS011;36320;48.860;2.380;2022-08-19T00:49:29;14.77;;;3.60;;
4208;SDS011;36320;48.860;2.380;2022-08-19T00:52:02;10.27;;;3.05;;
4208;SDS011;36320;48.860;2.380;2022-08-19T00:54:31;11.13;;;2.85;;
4208;SDS011;36320;48.860;2.380;2022-08-19T00:56:59;13.82;;;3.00;;
4208;SDS011;36320;48.860;2.380;2022-08-19T00:59:26;10.03;;;2.60;;
4208;SDS011;36320;48.860;2.380;2022-08-19T01:01:53;10.20;;;2.70;;
4208;SDS011;36320;48.860;2.380;2022-08-19T01:04:19;10.30;;;2.63;;
4208;SDS011;36320;48.860;2.380;2022-08-19T01:06:46;11.13;;;2.88;;
4208;SDS011;36320;48.860;2.380;2022-08-19T01:09:12;12.40;;;3.33;;
4208;SDS011;36320;48.860;2.380;2022-08-19T01:11:40;10.23;;;2.70;;
4208;SDS011;36320;48.860;2.380;2022-08-19T01:14:08;11.63;;;3.00;;
4208;SDS011;36320;48.860;2.380;2022-08-19T01:16:34;10.10;;;2.83;;
4208;SDS011;36320;48.860;2.380;2022-08-19T01:19:02;10.50;;;2.95;;
4208;SDS011;36320;48.860;2.380;2022-08-19T01:21:40;10.10;;;2.83;;
4208;SDS011;36320;48.860;2.380;2022-08-19T01:24:11;10.90;;;3.00;;
4208;SDS011;36320;48.860;2.380;2022-08-19T01:26:41;10.47;;;2.60;;
4208;SDS011;36320;48.860;2.380;2022-08-19T01:29:08;14.80;;;3.22;;
4208;SDS011;36320;48.860;2.380;2022-08-19T01:31:34;11.20;;;3.10;;
4208;SDS011;36320;48.860;2.380;2022-08-19T01:34:02;9.40;;;2.80;;
4208;SDS011;36320;48.860;2.380;2022-08-19T01:36:39;11.90;;;2.90;;
4208;SDS011;36320;48.860;2.380;2022-08-19T01:39:11;10.60;;;2.77;;
4208;SDS011;36320;48.860;2.380;2022-08-19T01:41:38;11.60;;;2.80;;
4208;SDS011;36320;48.860;2.380;2022-08-19T01:44:05;11.40;;;2.75;;
4208;SDS011;36320;48.860;2.380;2022-08-19T01:46:33;12.73;;;3.10;;
4208;SDS011;36320;48.860;2.380;2022-08-19T01:48:59;10.50;;;2.78;;
4208;SDS011;36320;48.860;2.380;2022-08-19T01:51:25;11.02;;;3.10;;
4208;SDS011;36320;48.860;2.380;2022-08-19T01:53:51;10.30;;;3.20;;
4208;SDS011;36320;48.860;2.380;2022-08-19T01:56:18;12.60;;;3.60;;
4208;SDS011;36320;48.860;2.380;2022-08-19T01:58:48;10.98;;;3.20;;
4208;SDS011;36320;48.860;2.380;2022-08-19T02:01:17;10.85;;;2.40;;
4208;SDS011;36320;48.860;2.380;2022-08-19T02:03:44;10.63;;;3.10;;
4208;SDS011;36320;48.860;2.380;2022-08-19T02:06:10;11.18;;;3.10;;
4208;SDS011;36320;48.860;2.380;2022-08-19T02:08:37;11.37;;;2.57;;
4208;SDS011;36320;48.860;2.380;2022-08-19T02:11:04;11.50;;;3.05;;
4208;SDS011;36320;48.860;2.380;2022-08-19T02:13:30;12.40;;;3.45;;
4208;SDS011;36320;48.860;2.380;2022-08-19T02:15:56;11.50;;;3.40;;
4208;SDS011;36320;48.860;2.380;2022-08-19T02:18:22;11.50;;;2.93;;
4208;SDS011;36320;48.860;2.380;2022-08-19T02:20:48;12.18;;;3.20;;
4208;SDS011;36320;48.860;2.380;2022-08-19T02:23:15;10.87;;;3.10;;
4208;SDS011;36320;48.860;2.380;2022-08-19T02:25:42;13.85;;;3.58;;
4208;SDS011;36320;48.860;2.380;2022-08-19T02:28:10;12.70;;;4.10;;
4208;SDS011;36320;48.860;2.380;2022-08-19T02:30:36;15.32;;;3.38;;
4208;SDS011;36320;48.860;2.380;2022-08-19T02:33:03;12.32;;;3.60;;
4208;SDS011;36320;48.860;2.380;2022-08-19T02:35:29;13.40;;;3.55;;
4208;SDS011;36320;48.860;2.380;2022-08-19T02:37:56;12.47;;;3.20;;
4208;SDS011;36320;48.860;2.380;2022-08-19T02:40:47;18.52;;;4.75;;
4208;SDS011;36320;48.860;2.380;2022-08-19T02:43:17;16.47;;;3.90;;
4208;SDS011;36320;48.860;2.380;2022-08-19T02:45:45;18.95;;;3.90;;
4208;SDS011;36320;48.860;2.380;2022-08-19T02:48:14;17.10;;;3.50;;
4208;SDS011;36320;48.860;2.380;2022-08-19T02:50:46;13.10;;;3.40;;
4208;SDS011;36320;48.860;2.380;2022-08-19T02:53:17;12.82;;;3.40;;
4208;SDS011;36320;48.860;2.380;2022-08-19T02:55:44;19.43;;;4.17;;
4208;SDS011;36320;48.860;2.380;2022-08-19T02:58:11;10.90;;;3.47;;
4208;SDS011;36320;48.860;2.380;2022-08-19T03:00:45;15.68;;;3.20;;
4208;SDS011;36320;48.860;2.380;2022-08-19T03:03:16;10.57;;;3.17;;
4208;SDS011;36320;48.860;2.380;2022-08-19T03:05:43;12.77;;;3.60;;
4208;SDS011;36320;48.860;2.380;2022-08-19T03:08:10;11.47;;;2.90;;
4208;SDS011;36320;48.860;2.380;2022-08-19T03:10:41;10.63;;;3.10;;
4208;SDS011;36320;48.860;2.380;2022-08-19T03:13:14;10.90;;;3.40;;
4208;SDS011;36320;48.860;2.380;2022-08-19T03:15:43;22.35;;;3.10;;
4208;SDS011;36320;48.860;2.380;2022-08-19T03:18:10;10.57;;;3.00;;
4208;SDS011;36320;48.860;2.380;2022-08-19T03:20:40;10.50;;;2.63;;
4208;SDS011;36320;48.860;2.380;2022-08-19T03:23:15;9.40;;;2.63;;
4208;SDS011;36320;48.860;2.380;2022-08-19T03:25:43;11.68;;;2.80;;
4208;SDS011;36320;48.860;2.380;2022-08-19T03:28:12;9.07;;;2.63;;
4208;SDS011;36320;48.860;2.380;2022-08-19T03:30:39;11.50;;;3.42;;
4208;SDS011;36320;48.860;2.380;2022-08-19T03:33:08;10.45;;;2.92;;
4208;SDS011;36320;48.860;2.380;2022-08-19T03:35:36;13.98;;;3.08;;
4208;SDS011;36320;48.860;2.380;2022-08-19T03:38:05;13.80;;;2.50;;
4208;SDS011;36320;48.860;2.380;2022-08-19T03:40:31;10.93;;;2.50;;
4208;SDS011;36320;48.860;2.380;2022-08-19T03:43:01;13.10;;;3.35;;
4208;SDS011;36320;48.860;2.380;2022-08-19T03:45:27;11.63;;;3.08;;
4208;SDS011;36320;48.860;2.380;2022-08-19T03:47:53;11.20;;;3.20;;
4208;SDS011;36320;48.860;2.380;2022-08-19T03:50:19;12.25;;;2.60;;
4208;SDS011;36320;48.860;2.380;2022-08-19T03:52:48;12.85;;;3.35;;
4208;SDS011;36320;48.860;2.380;2022-08-19T03:55:15;11.32;;;2.58;;
4208;SDS011;36320;48.860;2.380;2022-08-19T03:57:41;10.35;;;2.80;;
4208;SDS011;36320;48.860;2.380;2022-08-19T04:00:07;9.57;;;2.40;;
4208;SDS011;36320;48.860;2.380;2022-08-19T04:02:34;10.38;;;2.40;;
4208;SDS011;36320;48.860;2.380;2022-08-19T04:04:59;10.23;;;2.50;;
4208;SDS011;36320;48.860;2.380;2022-08-19T04:07:26;8.57;;;2.30;;
4208;SDS011;36320;48.860;2.380;2022-08-19T04:09:52;9.77;;;2.63;;
4208;SDS011;36320;48.860;2.380;2022-08-19T04:12:18;9.50;;;2.72;;
4208;SDS011;36320;48.860;2.380;2022-08-19T04:14:45;11.27;;;2.43;;
4208;SDS011;36320;48.860;2.380;2022-08-19T04:17:11;12.13;;;2.92;;
4208;SDS011;36320;48.860;2.380;2022-08-19T04:19:39;11.75;;;2.30;;
4208;SDS011;36320;48.860;2.380;2022-08-19T04:22:07;10.35;;;2.85;;
4208;SDS011;36320;48.860;2.380;2022-08-19T04:24:33;9.93;;;2.30;;
4208;SDS011;36320;48.860;2.380;2022-08-19T04:27:00;9.40;;;2.50;;
4208;SDS011;36320;48.860;2.380;2022-08-19T04:29:27;16.38;;;2.63;;
4208;SDS011;36320;48.860;2.380;2022-08-19T04:31:55;11.43;;;2.70;;
4208;SDS011;36320;48.860;2.380;2022-08-19T04:34:22;13.77;;;2.85;;
4208;SDS011;36320;48.860;2.380;2022-08-19T04:36:49;10.40;;;2.40;;
4208;SDS011;36320;48.860;2.380;2022-08-19T04:39:17;9.13;;;2.30;;
4208;SDS011;36320;48.860;2.380;2022-08-19T04:42:12;11.40;;;2.50;;
4208;SDS011;36320;48.860;2.380;2022-08-19T04:44:57;8.30;;;1.92;;
4208;SDS011;36320;48.860;2.380;2022-08-19T04:47:23;8.07;;;1.80;;
4208;SDS011;36320;48.860;2.380;2022-08-19T04:49:49;8.60;;;2.00;;
4208;SDS011;36320;48.860;2.380;2022-08-19T04:52:15;9.13;;;2.10;;
4208;SDS011;36320;48.860;2.380;2022-08-19T04:54:40;11.87;;;2.40;;
4208;SDS011;36320;48.860;2.380;2022-08-19T04:57:07;8.30;;;2.00;;
4208;SDS011;36320;48.860;2.380;2022-08-19T04:59:36;8.73;;;1.73;;
4208;SDS011;36320;48.860;2.380;2022-08-19T05:02:03;7.77;;;1.80;;
4208;SDS011;36320;48.860;2.380;2022-08-19T05:04:30;10.82;;;1.90;;
4208;SDS011;36320;48.860;2.380;2022-08-19T05:06:57;8.80;;;1.95;;
4208;SDS011;36320;48.860;2.380;2022-08-19T05:09:23;8.20;;;2.20;;
4208;SDS011;36320;48.860;2.380;2022-08-19T05:11:49;8.10;;;1.70;;
4208;SDS011;36320;48.860;2.380;2022-08-19T05:14:17;8.13;;;1.58;;
4208;SDS011;36320;48.860;2.380;2022-08-19T05:16:46;7.38;;;1.50;;
4208;SDS011;36320;48.860;2.380;2022-08-19T05:19:12;10.20;;;2.00;;
4208;SDS011;36320;48.860;2.380;2022-08-19T05:21:57;9.25;;;1.80;;
4208;SDS011;36320;48.860;2.380;2022-08-19T05:24:42;7.70;;;1.70;;
4208;SDS011;36320;48.860;2.380;2022-08-19T05:27:08;7.65;;;1.60;;
4208;SDS011;36320;48.860;2.380;2022-08-19T05:29:35;8.18;;;1.90;;
4208;SDS011;36320;48.860;2.380;2022-08-19T05:32:01;8.50;;;2.00;;
4208;SDS011;36320;48.860;2.380;2022-08-19T05:34:31;8.50;;;1.90;;
4208;SDS011;36320;48.860;2.380;2022-08-19T05:36:59;10.63;;;1.90;;
4208;SDS011;36320;48.860;2.380;2022-08-19T05:39:27;10.05;;;1.63;;
4208;SDS011;36320;48.860;2.380;2022-08-19T05:41:57;8.17;;;2.00;;
4208;SDS011;36320;48.860;2.380;2022-08-19T05:44:25;8.40;;;1.70;;
4208;SDS011;36320;48.860;2.380;2022-08-19T05:46:55;10.30;;;2.60;;
4208;SDS011;36320;48.860;2.380;2022-08-19T05:49:22;7.77;;;1.60;;
4208;SDS011;36320;48.860;2.380;2022-08-19T05:51:48;8.52;;;1.50;;
4208;SDS011;36320;48.860;2.380;2022-08-19T05:54:15;9.80;;;1.90;;
4208;SDS011;36320;48.860;2.380;2022-08-19T05:56:41;8.50;;;1.60;;
4208;SDS011;36320;48.860;2.380;2022-08-19T05:59:08;7.50;;;1.50;;
4208;SDS011;36320;48.860;2.380;2022-08-19T06:01:40;8.27;;;1.60;;
4208;SDS011;36320;48.860;2.380;2022-08-19T06:04:07;12.90;;;1.60;;
4208;SDS011;36320;48.860;2.380;2022-08-19T06:06:34;8.27;;;1.80;;
4208;SDS011;36320;48.860;2.380;2022-08-19T06:09:01;10.20;;;1.60;;
4208;SDS011;36320;48.860;2.380;2022-08-19T06:14:20;7.70;;;1.60;;
4208;SDS011;36320;48.860;2.380;2022-08-19T06:16:48;9.85;;;2.10;;
4208;SDS011;36320;48.860;2.380;2022-08-19T06:19:16;8.00;;;1.63;;
4208;SDS011;36320;48.860;2.380;2022-08-19T06:21:45;8.75;;;1.90;;
4208;SDS011;36320;48.860;2.380;2022-08-19T06:24:14;7.32;;;1.45;;
4208;SDS011;36320;48.860;2.380;2022-08-19T06:26:43;9.40;;;2.00;;
4208;SDS011;36320;48.860;2.380;2022-08-19T06:29:12;8.45;;;1.80;;
4208;SDS011;36320;48.860;2.380;2022-08-19T06:31:42;7.95;;;1.50;;
4208;SDS011;36320;48.860;2.380;2022-08-19T06:34:10;10.15;;;1.70;;
4208;SDS011;36320;48.860;2.380;2022-08-19T06:36:41;9.10;;;1.70;;
4208;SDS011;36320;48.860;2.380;2022-08-19T06:39:10;12.90;;;1.80;;
4208;SDS011;36320;48.860;2.380;2022-08-19T06:41:39;8.60;;;1.90;;
4208;SDS011;36320;48.860;2.380;2022-08-19T06:44:08;13.25;;;2.55;;
4208;SDS011;36320;48.860;2.380;2022-08-19T06:46:35;7.60;;;1.60;;
4208;SDS011;36320;48.860;2.380;2022-08-19T06:49:02;9.10;;;2.22;;
4208;SDS011;36320;48.860;2.380;2022-08-19T06:51:28;8.63;;;1.80;;
4208;SDS011;36320;48.860;2.380;2022-08-19T06:53:55;9.40;;;1.92;;
4208;SDS011;36320;48.860;2.380;2022-08-19T06:56:22;10.60;;;2.80;;
4208;SDS011;36320;48.860;2.380;2022-08-19T06:58:51;8.65;;;1.80;;
4208;SDS011;36320;48.860;2.380;2022-08-19T07:01:18;7.10;;;1.30;;
4208;SDS011;36320;48.860;2.380;2022-08-19T07:03:45;7.20;;;1.50;;
4208;SDS011;36320;48.860;2.380;2022-08-19T07:06:13;7.60;;;1.50;;
4208;SDS011;36320;48.860;2.380;2022-08-19T07:08:42;7.90;;;1.30;;
4208;SDS011;36320;48.860;2.380;2022-08-19T07:11:13;7.80;;;1.48;;
4208;SDS011;36320;48.860;2.380;2022-08-19T07:13:42;9.30;;;1.27;;
4208;SDS011;36320;48.860;2.380;2022-08-19T07:16:13;8.40;;;1.40;;
4208;SDS011;36320;48.860;2.380;2022-08-19T07:18:41;14.40;;;1.45;;
4208;SDS011;36320;48.860;2.380;2022-08-19T07:21:11;8.52;;;1.50;;
4208;SDS011;36320;48.860;2.380;2022-08-19T07:23:40;7.70;;;1.73;;
4208;SDS011;36320;48.860;2.380;2022-08-19T07:26:07;7.20;;;1.30;;
4208;SDS011;36320;48.860;2.380;2022-08-19T07:28:47;9.35;;;1.17;;
4208;SDS011;36320;48.860;2.380;2022-08-19T07:31:15;7.20;;;1.30;;
4208;SDS011;36320;48.860;2.380;2022-08-19T07:33:43;11.80;;;1.83;;
4208;SDS011;36320;48.860;2.380;2022-08-19T07:36:10;7.50;;;1.45;;
4208;SDS011;36320;48.860;2.380;2022-08-19T07:38:38;10.60;;;1.63;;
4208;SDS011;36320;48.860;2.380;2022-08-19T07:41:06;9.05;;;2.03;;
4208;SDS011;36320;48.860;2.380;2022-08-19T07:43:34;9.70;;;1.60;;
4208;SDS011;36320;48.860;2.380;2022-08-19T07:45:59;10.30;;;2.22;;
4208;SDS011;36320;48.860;2.380;2022-08-19T07:48:26;7.60;;;1.60;;
4208;SDS011;36320;48.860;2.380;2022-08-19T07:50:56;11.48;;;1.65;;
4208;SDS011;36320;48.860;2.380;2022-08-19T07:53:27;13.00;;;1.60;;
4208;SDS011;36320;48.860;2.380;2022-08-19T07:55:54;7.60;;;1.80;;
4208;SDS011;36320;48.860;2.380;2022-08-19T07:58:20;11.00;;;1.40;;
4208;SDS011;36320;48.860;2.380;2022-08-19T08:00:48;6.70;;;1.10;;
4208;SDS011;36320;48.860;2.380;2022-08-19T08:03:17;9.10;;;2.00;;
4208;SDS011;36320;48.860;2.380;2022-08-19T08:05:45;7.00;;;1.27;;
4208;SDS011;36320;48.860;2.380;2022-08-19T08:08:30;9.43;;;1.30;;
4208;SDS011;36320;48.860;2.380;2022-08-19T08:11:02;8.00;;;1.50;;
4208;SDS011;36320;48.860;2.380;2022-08-19T08:13:29;6.60;;;1.10;;
4208;SDS011;36320;48.860;2.380;2022-08-19T08:15:55;6.70;;;1.20;;
4208;SDS011;36320;48.860;2.380;2022-08-19T08:18:22;8.20;;;1.42;;
4208;SDS011;36320;48.860;2.380;2022-08-19T08:20:49;7.50;;;1.30;;
4208;SDS011;36320;48.860;2.380;2022-08-19T08:23:15;7.40;;;1.40;;
4208;SDS011;36320;48.860;2.380;2022-08-19T08:25:47;8.55;;;2.10;;
4208;SDS011;36320;48.860;2.380;2022-08-19T08:28:14;9.60;;;2.30;;
4208;SDS011;36320;48.860;2.380;2022-08-19T08:30:40;7.63;;;1.70;;
4208;SDS011;36320;48.860;2.380;2022-08-19T08:33:08;9.00;;;1.50;;
4208;SDS011;36320;48.860;2.380;2022-08-19T08:35:34;7.03;;;1.20;;
4208;SDS011;36320;48.860;2.380;2022-08-19T08:38:00;7.22;;;1.30;;
4208;SDS011;36320;48.860;2.380;2022-08-19T08:48:47;6.88;;;1.30;;
4208;SDS011;36320;48.860;2.380;2022-08-19T08:51:29;6.80;;;1.05;;
4208;SDS011;36320;48.860;2.380;2022-08-19T08:53:59;7.20;;;1.10;;
4208;SDS011;36320;48.860;2.380;2022-08-19T08:56:29;8.33;;;1.23;;
4208;SDS011;36320;48.860;2.380;2022-08-19T08:59:03;6.80;;;1.10;;
4208;SDS011;36320;48.860;2.380;2022-08-19T09:01:33;7.10;;;1.20;;
4208;SDS011;36320;48.860;2.380;2022-08-19T09:03:59;7.80;;;1.40;;
4208;SDS011;36320;48.860;2.380;2022-08-19T09:12:23;8.17;;;1.40;;
4208;SDS011;36320;48.860;2.380;2022-08-19T09:15:08;9.13;;;1.20;;
4208;SDS011;36320;48.860;2.380;2022-08-19T09:17:36;8.10;;;1.60;;
4208;SDS011;36320;48.860;2.380;2022-08-19T09:20:23;13.40;;;1.70;;
4208;SDS011;36320;48.860;2.380;2022-08-19T09:22:49;8.52;;;1.20;;
4208;SDS011;36320;48.860;2.380;2022-08-19T09:25:17;7.20;;;1.25;;
4208;SDS011;36320;48.860;2.380;2022-08-19T09:27:46;6.90;;;1.30;;
4208;SDS011;36320;48.860;2.380;2022-08-19T09:30:15;7.90;;;1.43;;
4208;SDS011;36320;48.860;2.380;2022-08-19T09:32:46;8.63;;;1.55;;
4208;SDS011;36320;48.860;2.380;2022-08-19T09:35:12;7.20;;;1.30;;
4208;SDS011;36320;48.860;2.380;2022-08-19T09:37:38;7.40;;;1.40;;
4208;SDS011;36320;48.860;2.380;2022-08-19T09:40:04;7.50;;;1.33;;
4208;SDS011;36320;48.860;2.380;2022-08-19T09:42:31;9.73;;;1.50;;
4208;SDS011;36320;48.860;2.380;2022-08-19T09:44:58;8.52;;;1.50;;
4208;SDS011;36320;48.860;2.380;2022-08-19T09:47:24;10.30;;;2.37;;
4208;SDS011;36320;48.860;2.380;2022-08-19T09:49:53;7.22;;;1.40;;
4208;SDS011;36320;48.860;2.380;2022-08-19T09:52:19;7.50;;;1.50;;
4208;SDS011;36320;48.860;2.380;2022-08-19T09:54:45;10.05;;;1.40;;
4208;SDS011;36320;48.860;2.380;2022-08-19T09:57:11;7.00;;;1.20;;
4208;SDS011;36320;48.860;2.380;2022-08-19T09:59:36;6.88;;;1.17;;
4208;SDS011;36320;48.860;2.380;2022-08-19T10:02:05;7.53;;;1.60;;
4208;SDS011;36320;48.860;2.380;2022-08-19T10:04:30;11.45;;;1.40;;
4208;SDS011;36320;48.860;2.380;2022-08-19T10:07:16;10.13;;;2.00;;
4208;SDS011;36320;48.860;2.380;2022-08-19T10:09:42;8.45;;;1.40;;
4208;SDS011;36320;48.860;2.380;2022-08-19T10:12:08;8.90;;;1.50;;
4208;SDS011;36320;48.860;2.380;2022-08-19T10:14:34;7.40;;;1.50;;
4208;SDS011;36320;48.860;2.380;2022-08-19T10:17:00;14.00;;;1.40;;
4208;SDS011;36320;48.860;2.380;2022-08-19T10:19:28;7.20;;;1.30;;
4208;SDS011;36320;48.860;2.380;2022-08-19T10:22:01;7.30;;;1.40;;
4208;SDS011;36320;48.860;2.380;2022-08-19T10:24:36;7.40;;;1.50;;
4208;SDS011;36320;48.860;2.380;2022-08-19T10:27:01;7.93;;;1.50;;
4208;SDS011;36320;48.860;2.380;2022-08-19T10:29:29;8.00;;;1.70;;
4208;SDS011;36320;48.860;2.380;2022-08-19T10:31:56;8.40;;;1.50;;
4208;SDS011;36320;48.860;2.380;2022-08-19T10:34:24;7.53;;;1.45;;
4208;SDS011;36320;48.860;2.380;2022-08-19T10:36:51;7.40;;;1.60;;
4208;SDS011;36320;48.860;2.380;2022-08-19T10:39:16;9.97;;;1.50;;
4208;SDS011;36320;48.860;2.380;2022-08-19T10:41:42;9.57;;;1.67;;
4208;SDS011;36320;48.860;2.380;2022-08-19T10:44:09;8.38;;;1.77;;
4208;SDS011;36320;48.860;2.380;2022-08-19T10:46:37;7.90;;;1.40;;
4208;SDS011;36320;48.860;2.380;2022-08-19T10:49:10;8.68;;;1.40;;
4208;SDS011;36320;48.860;2.380;2022-08-19T10:51:37;12.20;;;1.60;;
4208;SDS011;36320;48.860;2.380;2022-08-19T10:54:22;7.10;;;1.40;;
4208;SDS011;36320;48.860;2.380;2022-08-19T10:56:48;7.10;;;1.50;;
4208;SDS011;36320;48.860;2.380;2022-08-19T10:59:17;6.90;;;1.30;;
4208;SDS011;36320;48.860;2.380;2022-08-19T11:01:46;8.50;;;1.23;;
4208;SDS011;36320;48.860;2.380;2022-08-19T11:04:12;11.20;;;1.75;;
4208;SDS011;36320;48.860;2.380;2022-08-19T11:06:40;8.70;;;1.40;;
4208;SDS011;36320;48.860;2.380;2022-08-19T11:09:08;9.57;;;1.30;;
4208;SDS011;36320;48.860;2.380;2022-08-19T11:11:36;9.93;;;1.30;;
4208;SDS011;36320;48.860;2.380;2022-08-19T11:14:06;10.10;;;1.50;;
4208;SDS011;36320;48.860;2.380;2022-08-19T11:16:33;7.05;;;1.30;;
4208;SDS011;36320;48.860;2.380;2022-08-19T11:18:59;9.57;;;1.60;;
4208;SDS011;36320;48.860;2.380;2022-08-19T11:21:30;7.70;;;1.60;;
4208;SDS011;36320;48.860;2.380;2022-08-19T11:23:58;8.25;;;1.30;;
4208;SDS011;36320;48.860;2.380;2022-08-19T11:26:27;8.38;;;1.40;;
4208;SDS011;36320;48.860;2.380;2022-08-19T11:28:54;7.05;;;1.20;;
4208;SDS011;36320;48.860;2.380;2022-08-19T11:31:21;7.80;;;1.50;;
4208;SDS011;36320;48.860;2.380;2022-08-19T11:33:49;8.30;;;1.50;;
4208;SDS011;36320;48.860;2.380;2022-08-19T11:36:19;7.00;;;1.30;;
4208;SDS011;36320;48.860;2.380;2022-08-19T11:38:47;7.83;;;1.60;;
4208;SDS011;36320;48.860;2.380;2022-08-19T11:41:14;8.47;;;1.40;;
4208;SDS011;36320;48.860;2.380;2022-08-19T11:43:41;8.00;;;1.40;;
4208;SDS011;36320;48.860;2.380;2022-08-19T11:46:08;7.30;;;1.50;;
4208;SDS011;36320;48.860;2.380;2022-08-19T11:48:35;13.50;;;1.60;;
4208;SDS011;36320;48.860;2.380;2022-08-19T11:51:06;8.43;;;1.30;;
4208;SDS011;36320;48.860;2.380;2022-08-19T11:53:33;7.60;;;1.30;;
4208;SDS011;36320;48.860;2.380;2022-08-19T11:56:01;7.60;;;1.20;;
4208;SDS011;36320;48.860;2.380;2022-08-19T11:58:27;7.10;;;1.20;;
4208;SDS011;36320;48.860;2.380;2022-08-19T12:00:54;10.93;;;1.60;;
4208;SDS011;36320;48.860;2.380;2022-08-19T12:03:20;7.15;;;1.42;;
4208;SDS011;36320;48.860;2.380;2022-08-19T12:05:46;9.73;;;2.50;;
4208;SDS011;36320;48.860;2.380;2022-08-19T12:08:12;9.30;;;2.05;;
4208;SDS011;36320;48.860;2.380;2022-08-19T12:10:39;7.70;;;1.60;;
4208;SDS011;36320;48.860;2.380;2022-08-19T12:13:06;7.30;;;1.30;;
4208;SDS011;36320;48.860;2.380;2022-08-19T12:15:38;8.05;;;1.60;;
4208;SDS011;36320;48.860;2.380;2022-08-19T12:18:08;8.32;;;1.92;;
4208;SDS011;36320;48.860;2.380;2022-08-19T12:20:38;7.38;;;1.50;;
4208;SDS011;36320;48.860;2.380;2022-08-19T12:23:06;7.90;;;1.70;;
4208;SDS011;36320;48.860;2.380;2022-08-19T12:25:34;7.77;;;1.53;;
4208;SDS011;36320;48.860;2.380;2022-08-19T12:28:01;7.78;;;1.60;;
4208;SDS011;36320;48.860;2.380;2022-08-19T12:30:27;8.32;;;1.55;;
4208;SDS011;36320;48.860;2.380;2022-08-19T12:32:54;7.78;;;1.40;;
4208;SDS011;36320;48.860;2.380;2022-08-19T12:35:23;8.40;;;1.50;;
4208;SDS011;36320;48.860;2.380;2022-08-19T12:37:48;10.90;;;1.73;;
4208;SDS011;36320;48.860;2.380;2022-08-19T12:40:15;8.90;;;1.50;;
4208;SDS011;36320;48.860;2.380;2022-08-19T12:42:42;7.55;;;1.58;;
4208;SDS011;36320;48.860;2.380;2022-08-19T12:45:09;8.00;;;1.50;;
4208;SDS011;36320;48.860;2.380;2022-08-19T12:47:36;9.27;;;1.80;;
4208;SDS011;36320;48.860;2.380;2022-08-19T12:50:02;6.80;;;1.38;;
4208;SDS011;36320;48.860;2.380;2022-08-19T12:52:28;7.50;;;1.40;;
4208;SDS011;36320;48.860;2.380;2022-08-19T12:54:54;9.20;;;1.40;;
4208;SDS011;36320;48.860;2.380;2022-08-19T12:57:25;6.60;;;1.20;;
4208;SDS011;36320;48.860;2.380;2022-08-19T12:59:53;18.35;;;2.33;;
4208;SDS011;36320;48.860;2.380;2022-08-19T13:02:18;8.15;;;1.75;;
4208;SDS011;36320;48.860;2.380;2022-08-19T13:04:45;9.07;;;1.70;;
4208;SDS011;36320;48.860;2.380;2022-08-19T13:07:11;7.95;;;1.48;;
4208;SDS011;36320;48.860;2.380;2022-08-19T13:09:37;8.23;;;1.83;;
4208;SDS011;36320;48.860;2.380;2022-08-19T13:12:05;8.15;;;1.70;;
4208;SDS011;36320;48.860;2.380;2022-08-19T13:14:34;7.55;;;1.38;;
4208;SDS011;36320;48.860;2.380;2022-08-19T13:17:00;7.60;;;1.50;;
4208;SDS011;36320;48.860;2.380;2022-08-19T13:19:25;9.30;;;1.60;;
4208;SDS011;36320;48.860;2.380;2022-08-19T13:21:51;8.50;;;1.60;;
4208;SDS011;36320;48.860;2.380;2022-08-19T13:24:20;7.07;;;1.40;;
4208;SDS011;36320;48.860;2.380;2022-08-19T13:26:46;6.90;;;1.23;;
4208;SDS011;36320;48.860;2.380;2022-08-19T13:29:12;8.60;;;1.70;;
4208;SDS011;36320;48.860;2.380;2022-08-19T13:31:57;7.82;;;1.60;;
4208;SDS011;36320;48.860;2.380;2022-08-19T13:34:41;9.60;;;1.35;;
4208;SDS011;36320;48.860;2.380;2022-08-19T13:37:07;7.60;;;1.30;;
4208;SDS011;36320;48.860;2.380;2022-08-19T13:39:33;6.90;;;1.30;;
4208;SDS011;36320;48.860;2.380;2022-08-19T13:41:59;6.50;;;1.10;;
4208;SDS011;36320;48.860;2.380;2022-08-19T13:44:28;7.40;;;1.20;;
4208;SDS011;36320;48.860;2.380;2022-08-19T13:47:00;7.90;;;1.98;;
4208;SDS011;36320;48.860;2.380;2022-08-19T13:49:31;7.45;;;1.27;;
4208;SDS011;36320;48.860;2.380;2022-08-19T13:51:57;6.60;;;1.15;;
4208;SDS011;36320;48.860;2.380;2022-08-19T13:54:23;7.88;;;1.40;;
4208;SDS011;36320;48.860;2.380;2022-08-19T13:56:49;9.68;;;1.50;;
4208;SDS011;36320;48.860;2.380;2022-08-19T13:59:15;8.20;;;1.20;;
4208;SDS011;36320;48.860;2.380;2022-08-19T14:01:41;6.60;;;1.30;;
4208;SDS011;36320;48.860;2.380;2022-08-19T14:04:07;8.75;;;1.80;;
4208;SDS011;36320;48.860;2.380;2022-08-19T14:06:33;7.65;;;1.77;;
4208;SDS011;36320;48.860;2.380;2022-08-19T14:08:59;7.45;;;1.52;;
4208;SDS011;36320;48.860;2.380;2022-08-19T14:11:26;9.00;;;2.05;;
4208;SDS011;36320;48.860;2.380;2022-08-19T14:13:53;7.45;;;1.50;;
4208;SDS011;36320;48.860;2.380;2022-08-19T14:16:18;9.20;;;1.30;;
4208;SDS011;36320;48.860;2.380;2022-08-19T14:18:46;8.30;;;1.30;;
4208;SDS011;36320;48.860;2.380;2022-08-19T14:21:15;6.70;;;1.30;;
4208;SDS011;36320;48.860;2.380;2022-08-19T14:23:43;12.80;;;1.33;;
4208;SDS011;36320;48.860;2.380;2022-08-19T14:26:10;8.40;;;1.50;;
4208;SDS011;36320;48.860;2.380;2022-08-19T14:28:39;13.32;;;1.60;;
4208;SDS011;36320;48.860;2.380;2022-08-19T14:31:07;7.90;;;1.77;;
4208;SDS011;36320;48.860;2.380;2022-08-19T14:33:36;7.80;;;1.40;;
4208;SDS011;36320;48.860;2.380;2022-08-19T14:36:03;10.48;;;1.80;;
4208;SDS011;36320;48.860;2.380;2022-08-19T14:38:29;7.05;;;1.35;;
4208;SDS011;36320;48.860;2.380;2022-08-19T14:41:05;12.63;;;2.20;;
4208;SDS011;36320;48.860;2.380;2022-08-19T14:43:43;7.50;;;1.10;;
4208;SDS011;36320;48.860;2.380;2022-08-19T14:46:14;7.78;;;1.30;;
4208;SDS011;36320;48.860;2.380;2022-08-19T14:48:40;6.38;;;1.00;;
4208;SDS011;36320;48.860;2.380;2022-08-19T14:51:07;6.40;;;1.10;;
4208;SDS011;36320;48.860;2.380;2022-08-19T14:53:33;6.70;;;1.30;;
4208;SDS011;36320;48.860;2.380;2022-08-19T14:55:59;10.50;;;1.50;;
4208;SDS011;36320;48.860;2.380;2022-08-19T14:58:26;7.80;;;1.50;;
4208;SDS011;36320;48.860;2.380;2022-08-19T15:00:53;13.60;;;1.40;;
4208;SDS011;36320;48.860;2.380;2022-08-19T15:03:18;6.63;;;1.27;;
4208;SDS011;36320;48.860;2.380;2022-08-19T15:05:44;6.60;;;1.00;;
4208;SDS011;36320;48.860;2.380;2022-08-19T15:08:10;7.63;;;1.37;;
4208;SDS011;36320;48.860;2.380;2022-08-19T15:10:37;6.60;;;1.17;;
4208;SDS011;36320;48.860;2.380;2022-08-19T15:13:03;7.00;;;1.15;;
4208;SDS011;36320;48.860;2.380;2022-08-19T15:15:29;7.00;;;1.20;;
4208;SDS011;36320;48.860;2.380;2022-08-19T15:17:55;10.25;;;1.42;;